Flight Track Log - Related Links

Times and Time Zones

All times are in EDT time to prevent confusion due to time zone crossing. See the AAY876 flight status page for this flight to view local times or setup timezone preferences in your user account.

Time Position Orientation Groundspeed Altitude Reporting Facility
EDT Latitude Longitude Course Direction KTS MPH feet Rate Location/Type
Mon 04:22:00 PM 28.5102 -83.0614 330° Northwest  Level FlightAware Approximate
Mon 04:23:00 PM 28.6114 -83.1268 330° Northwest  Level FlightAware Approximate
Mon 04:24:00 PM 28.7126 -83.1924 330° Northwest  Level FlightAware Approximate
Mon 04:25:00 PM 28.8141 -83.2574 331° Northwest  Level FlightAware Approximate
Mon 04:26:00 PM 28.9157 -83.3221 331° Northwest  Level FlightAware Approximate
Mon 04:27:00 PM 29.0186 -83.3844 332° Northwest  Level FlightAware Approximate
Mon 04:27:28 PM 27.9500 -82.6833 41° Northeast 160 184 1,700  Level Tampa TRACON
Mon 04:28:00 PM 29.1216 -83.4463 332° Northwest  Level FlightAware Approximate
Mon 04:28:28 PM 28.0000 -82.6667 16° North 259 298 2,800  Level Tampa TRACON
Mon 04:29:00 PM 29.2237 -83.5102 330° Northwest  Level FlightAware Approximate
Mon 04:30:00 PM 29.3244 -83.5773 330° Northwest  Level FlightAware Approximate
Mon 04:30:31 PM 28.1228 -82.7442 331° Northwest 294 338 8,000  Level Jacksonville Center
Mon 04:31:00 PM 29.4269 -83.6385 336° Northwest  Level FlightAware Approximate
Mon 04:31:21 PM 28.1833 -82.7481 357° North 296 341 10,000  Level Miami Center
Mon 04:32:00 PM 29.5289 -83.7026 330° Northwest  Level FlightAware Approximate
Mon 04:32:23 PM 28.2897 -82.7492 359° North 318 366 11,700  Level Miami Center
Mon 04:33:25 PM 28.3833 -82.7969 336° Northwest 362 417 13,800 1,922 Climbing Miami Center
Mon 04:34:31 PM 28.4797 -82.8572 331° Northwest 350 403 15,800 1,810 Climbing Jacksonville Center
Mon 04:35:31 PM 28.5797 -82.9092 335° Northwest 375 432 17,600 1,750 Climbing Jacksonville Center
Mon 04:36:31 PM 28.6778 -82.9658 333° Northwest 385 443 19,300 1,650 Climbing Jacksonville Center
Mon 04:37:31 PM 28.7822 -83.0158 337° Northwest 395 455 20,900 1,400 Climbing Jacksonville Center
Mon 04:38:31 PM 28.9011 -83.0728 337° Northwest 410 472 22,100 1,200 Climbing Jacksonville Center
Mon 04:39:31 PM 29.0158 -83.1228 339° North 417 480 23,300 1,250 Climbing Jacksonville Center
Mon 04:40:31 PM 29.1283 -83.1778 337° Northwest 428 493 24,600 1,050 Climbing Jacksonville Center
Mon 04:41:31 PM 29.2453 -83.2306 339° North 439 505 25,400 850 Climbing Jacksonville Center
Mon 04:42:31 PM 29.3619 -83.2858 338° Northwest 445 512 26,300 800 Climbing Jacksonville Center
Mon 04:43:31 PM 29.4808 -83.3411 338° Northwest 450 518 27,000 650 Climbing Jacksonville Center
Mon 04:44:31 PM 29.5911 -83.4181 329° Northwest 455 524 27,600 761 Climbing Jacksonville Center
Mon 04:50:05 PM 30.1998 -83.9111 324° Northwest 478 550 32,000 715 Climbing FlightAware ADS-B (KONZ)
Mon 04:50:40 PM 30.2619 -83.9623 325° Northwest 473 544 32,000  Level FlightAware ADS-B (KONZ)
Mon 04:51:11 PM 30.3161 -84.0070 324° Northwest 472 543 32,000  Level FlightAware ADS-B (KONZ)
Mon 04:51:49 PM 30.3848 -84.0637 324° Northwest 472 543 32,000  Level FlightAware ADS-B (KONZ)
Mon 04:52:20 PM 30.4399 -84.1092 324° Northwest 472 543 32,000  Level FlightAware ADS-B (KONZ)
Mon 04:52:51 PM 30.4942 -84.1541 324° Northwest 471 542 32,000  Level FlightAware ADS-B (KONZ)
Mon 04:53:21 PM 30.5477 -84.1984 324° Northwest 469 540 32,000 400 Level FlightAware ADS-B (KONZ)
Mon 04:53:51 PM 30.5970 -84.2394 324° Northwest 471 542 32,400 783 Climbing FlightAware ADS-B (KONZ)
Mon 04:54:30 PM 30.6696 -84.2998 324° Northwest 472 543 32,900 771 Climbing FlightAware ADS-B (KONZ)
Mon 04:55:01 PM 30.7258 -84.3466 324° Northwest 473 544 33,300 930 Climbing FlightAware ADS-B (KONZ)
Mon 04:55:41 PM 30.7966 -84.4055 324° Northwest 469 540 34,000 472 Climbing FlightAware ADS-B (KONZ)
Mon 04:56:30 PM 30.8391 -84.4409 324° Northwest 468 539 34,000  Level FlightAware ADS-B (KONZ)
Mon 04:57:04 PM 30.9436 -84.5284 324° Northwest 466 536 34,000  Level FlightAware ADS-B (KONZ)
Mon 04:57:46 PM 30.9892 -84.5665 324° Northwest 466 536 34,000 414 Level FlightAware ADS-B (KONZ)
Mon 04:59:00 PM 31.0361 -84.6059 324° Northwest 468 539 34,800 629 Climbing FlightAware ADS-B (KONZ)
Mon 04:59:31 PM 31.1844 -84.7333 324° Northwest 474 545 35,100 593 Climbing Jacksonville Center
Mon 05:00:31 PM 31.2875 -84.8228 323° Northwest 474 545 35,700 320 Climbing Jacksonville Center
Mon 05:02:20 PM 31.4822 -84.9886 324° Northwest 478 550 36,000 107 Climbing Atlanta Center
Mon 05:03:20 PM 31.5858 -85.0775 324° Northwest 473 544 36,000  Level Atlanta Center
Mon 05:04:20 PM 31.7058 -85.1717 326° Northwest 473 544 36,000  Level Atlanta Center
Mon 05:05:20 PM 31.8136 -85.2681 323° Northwest 475 547 36,000  Level Atlanta Center
Mon 05:06:20 PM 31.9211 -85.3553 325° Northwest 475 547 36,000  Level Atlanta Center
Mon 05:07:20 PM 32.0286 -85.4500 323° Northwest 475 547 36,000  Level Atlanta Center
Mon 05:08:20 PM 32.1361 -85.5425 324° Northwest 475 547 36,000  Level Atlanta Center
Mon 05:09:20 PM 32.2456 -85.6350 324° Northwest 480 552 36,000  Level Atlanta Center
Mon 05:10:20 PM 32.3528 -85.7281 324° Northwest 480 552 36,000  Level Atlanta Center
Mon 05:11:20 PM 32.4456 -85.8208 320° Northwest 480 552 36,000  Level Atlanta Center
Mon 05:16:34 PM 33.0291 -86.3256 323° Northwest 481 554 36,000  Level FlightAware ADS-B (KMDQ)
Mon 05:17:05 PM 33.0784 -86.3693 325° Northwest 481 554 36,000  Level FlightAware ADS-B (KMDQ)
Mon 05:18:05 PM 33.2039 -86.4265 348° North 492 566 36,000  Level FlightAware ADS-B (KMDQ)
Mon 05:19:24 PM 33.3888 -86.4757 347° North 486 559 36,000  Level FlightAware ADS-B (KMDQ)
Mon 05:20:06 PM 33.4840 -86.5013 347° North 485 558 36,000  Level FlightAware ADS-B (KMDQ)
Mon 05:20:46 PM 33.5710 -86.5245 347° North 482 555 36,000  Level FlightAware ADS-B (KMDQ)
Mon 05:21:26 PM 33.6584 -86.5479 347° North 480 552 36,000  Level FlightAware ADS-B (KMDQ)
Mon 05:22:25 PM 33.7875 -86.5826 347° North 478 550 36,000  Level FlightAware ADS-B (KMDQ)
Mon 05:23:06 PM 33.8750 -86.6062 347° North 476 548 36,000  Level FlightAware ADS-B (KMDQ)
Mon 05:23:46 PM 33.9568 -86.6285 347° North 473 544 36,000  Level FlightAware ADS-B (KMDQ)
Mon 05:24:25 PM 34.0231 -86.6465 347° North 468 539 36,000  Level FlightAware ADS-B (KMDQ)
Mon 05:25:05 PM 34.1280 -86.6748 347° North 467 537 36,000  Level FlightAware ADS-B (KMDQ)
Mon 05:25:45 PM 34.2012 -86.6948 347° North 465 535 36,000  Level FlightAware ADS-B (KMDQ)
Mon 05:26:25 PM 34.2915 -86.7195 347° North 465 535 36,000  Level FlightAware ADS-B (KMDQ)
Mon 05:27:05 PM 34.3743 -86.7423 347° North 461 531 36,000 78 Level FlightAware ADS-B (KMDQ)
Mon 05:27:42 PM 34.4567 -86.7649 347° North 455 524 36,100  Climbing FlightAware ADS-B (KMDQ)
Mon 05:28:24 PM 34.5266 -86.7841 347° North 453 521 36,000 -71 Descending FlightAware ADS-B (KMDQ)
Mon 05:29:06 PM 34.6284 -86.8122 347° North 454 522 36,000  Level FlightAware ADS-B (KMDQ)
Mon 05:30:05 PM 34.7510 -86.8461 347° North 457 526 36,000  Level FlightAware ADS-B (KMDQ)
Mon 05:30:46 PM 34.8335 -86.8688 347° North 459 528 36,000 80 Level FlightAware ADS-B (KMDQ)
Mon 05:31:20 PM 34.9050 -86.8887 347° North 457 526 36,100 75 Climbing FlightAware ADS-B (KMDQ)
Mon 05:32:06 PM 34.9996 -86.9151 347° North 454 522 36,100  Level FlightAware ADS-B (KMDQ)
Mon 05:32:45 PM 35.0799 -86.9374 347° North 449 517 36,100 -76 Level FlightAware ADS-B (KMDQ)
Mon 05:33:25 PM 35.1534 -86.9580 347° North 446 513 36,000 -74 Descending FlightAware ADS-B (KMDQ)
Mon 05:34:06 PM 35.2321 -86.9800 347° North 447 514 36,000  Level FlightAware ADS-B (KMDQ)
Mon 05:34:46 PM 35.3180 -87.0041 347° North 443 510 36,000  Level FlightAware ADS-B (KMDQ)
Mon 05:35:25 PM 35.4017 -87.0275 347° North 439 505 36,000  Level FlightAware ADS-B (KMDQ)
Mon 05:36:06 PM 35.4762 -87.0484 347° North 436 502 36,000  Level FlightAware ADS-B (KMDQ)
Mon 05:36:46 PM 35.5521 -87.0699 347° North 434 499 36,000  Level FlightAware ADS-B (KMDQ)
Mon 05:37:43 PM 35.6691 -87.1030 347° North 434 499 36,000  Level FlightAware ADS-B (KMDQ)
Mon 05:38:52 PM 35.7961 -87.1406 347° North 437 503 36,000  Level Memphis Center
Mon 05:39:54 PM 35.9144 -87.1750 347° North 435 501 36,000  Level Memphis Center
Mon 05:40:56 PM 36.0333 -87.2083 347° North 434 499 36,000  Level Memphis Center
Mon 05:41:58 PM 36.1531 -87.2439 347° North 434 499 36,000  Level Memphis Center
Mon 05:43:00 PM 36.2739 -87.2769 348° North 434 499 36,000  Level Memphis Center
Mon 05:44:02 PM 36.3936 -87.3114 347° North 434 499 36,000  Level Memphis Center
Mon 05:45:04 PM 36.5117 -87.3442 347° North 432 497 36,000  Level Memphis Center
Mon 05:51:07 PM 37.2393 -87.5568 347° North 434 499 36,000  Level FlightAware ADS-B
Mon 05:52:18 PM 37.3592 -87.5917 347° North 431 496 36,000  Level Memphis Center
Mon 05:53:20 PM 37.4786 -87.6283 346° North 432 497 36,000  Level Memphis Center
Mon 05:54:22 PM 37.6194 -87.6694 347° North 436 502 36,000  Level Memphis Center
Mon 05:55:25 PM 37.7406 -87.7061 347° North 438 504 36,000  Level Memphis Center
Mon 05:56:27 PM 37.8614 -87.7428 347° North 441 507 36,000  Level Memphis Center
Mon 05:57:36 PM 37.9925 -87.7733 350° North 441 507 36,000  Level Indianapolis Center
Mon 05:58:38 PM 38.1156 -87.7906 354° North 441 507 36,000  Level Indianapolis Center
Mon 05:59:40 PM 38.2386 -87.8078 354° North 441 507 36,000  Level Indianapolis Center
Mon 06:00:42 PM 38.3628 -87.8269 353° North 441 507 36,000  Level Indianapolis Center
Mon 06:01:44 PM 38.5086 -87.8481 354° North 441 507 36,000  Level Indianapolis Center
Mon 06:02:46 PM 38.6308 -87.8667 353° North 441 507 36,000  Level Indianapolis Center
Mon 06:03:48 PM 38.7536 -87.8833 354° North 440 506 36,000  Level Indianapolis Center
Mon 06:04:50 PM 38.8758 -87.9022 353° North 440 506 36,000  Level Indianapolis Center
Mon 06:05:52 PM 38.9983 -87.9211 353° North 440 506 36,000  Level Indianapolis Center
Mon 06:06:54 PM 39.1208 -87.9389 354° North 440 506 36,000  Level Indianapolis Center
Mon 06:07:56 PM 39.2444 -87.9564 354° North 441 507 36,000  Level Indianapolis Center
Mon 06:13:58 PM 40.0002 -88.0734 353° North 448 516 36,000  Level FlightAware ADS-B
Mon 06:14:54 PM 40.1243 -88.0960 345° North 451 519 36,000  Level FlightAware ADS-B
Mon 06:15:30 PM 40.1891 -88.1262 340° North 449 517 36,000  Level FlightAware ADS-B
Mon 06:16:04 PM 40.2595 -88.1594 341° North 449 517 36,000  Level FlightAware ADS-B
Mon 06:16:55 PM 40.3629 -88.2076 353° North 446 513 36,000 -1,392 Level FlightAware ADS-B
Mon 06:18:09 PM 40.5079 -88.2760 340° North 446 513 33,100 -2,289 Descending FlightAware ADS-B
Mon 06:19:27 PM 40.5398 -88.2911 340° North 426 490 30,200 -2,262 Descending FlightAware ADS-B
Mon 06:20:19 PM 40.6851 -88.3604 340° North 413 475 28,200 -2,198 Descending FlightAware ADS-B
Mon 06:21:08 PM 40.8369 -88.4331 340° North 400 460 26,500 -2,118 Descending FlightAware ADS-B
Mon 06:21:44 PM 40.8987 -88.4627 340° North 389 448 25,200 -2,000 Descending FlightAware ADS-B
Mon 06:22:20 PM 40.9540 -88.4892 340° North 386 444 24,100 -947 Descending FlightAware ADS-B
Mon 06:23:00 PM 41.0268 -88.5242 340° North 391 450 24,000 -585 Descending FlightAware ADS-B
Mon 06:23:42 PM 41.0959 -88.5574 340° North 378 435 23,300 -2,093 Descending FlightAware ADS-B
Mon 06:24:26 PM 41.1671 -88.5918 340° North 392 451 21,000 -2,914 Descending FlightAware ADS-B
Mon 06:25:27 PM 41.2502 -88.6321 340° North 395 455 18,200 -2,571 Descending FlightAware ADS-B
Mon 06:25:57 PM 41.3162 -88.6642 340° North 384 442 17,100 -2,560 Descending FlightAware ADS-B
Mon 06:26:42 PM 41.2682 -88.6408 340° North 382 440 15,000 -2,348 Descending FlightAware ADS-B
Mon 06:27:29 PM 41.4271 -88.7184 340° North 370 426 13,500 -1,313 Descending FlightAware ADS-B
Mon 06:28:18 PM 41.5451 -88.7761 340° North 336 387 12,900 -419 Descending FlightAware ADS-B
Mon 06:28:55 PM 41.6055 -88.8058 340° North 317 365 12,900  Level FlightAware ADS-B
Mon 06:29:28 PM 41.6512 -88.8280 340° North 312 359 12,900  Level FlightAware ADS-B
Mon 06:30:21 PM 41.7029 -88.8533 340° North 300 345 12,900 -1,319 Level FlightAware ADS-B
Mon 06:30:59 PM 41.7700 -88.8863 340° North 316 364 10,900 -2,400 Descending FlightAware ADS-B
Mon 06:31:41 PM 41.7994 -88.9007 340° North 313 360 9,700 -1,784 Descending FlightAware ADS-B
Mon 06:32:13 PM 41.8668 -88.9339 340° North 295 339 8,700 -1,636 Descending FlightAware ADS-B
Mon 06:32:36 PM 41.8964 -88.9486 340° North 288 331 8,200 -1,463 Descending FlightAware ADS-B
Mon 06:32:54 PM 41.9182 -88.9595 340° North 284 327 7,700 -1,645 Descending FlightAware ADS-B
Mon 06:33:38 PM 41.9725 -88.9866 340° North 287 330 6,500 -1,662 Descending FlightAware ADS-B
Mon 06:33:59 PM 41.9987 -88.9995 340° North 285 328 5,900 -1,667 Descending FlightAware ADS-B
Mon 06:34:32 PM 42.0005 -89.0004 340° North 285 328 5,000 -1,714 Descending FlightAware ADS-B
Mon 06:35:09 PM 42.0831 -89.0419 340° North 284 327 3,900 -1,333 Descending Chicago Center
Mon 06:36:11 PM 42.1422 -89.0203 15° North 285 328 2,800 -677 Descending Chicago Center
Mon 06:37:13 PM 42.2172 -88.9778 23° Northeast 257 296 2,500 -290 Descending Chicago Center
Mon 06:38:15 PM 42.2339 -89.0333 292° West 221 254 2,200 -290 Descending Chicago Center

Login

Don't have an account? Register now (free) for customized features, flight alerts, and more!